Time,TemperatureF,DewpointF,PressureIn,WindDirection,WindDirectionDegrees,WindSpeedMPH,WindSpeedGustMPH,Humidity,HourlyPrecipIn,Conditions,Clouds,dailyrainin,SoftwareType,DateUTC
2013-03-27 01:22:00,37.0,21.0,29.79,NW,320,6.0,7.0,51,-99.99,,,-99.99,,2013-03-27 05:22:00,
2013-03-27 01:32:00,37.0,21.0,29.79,NW,320,6.0,7.0,52,-99.99,,,-99.99,,2013-03-27 05:32:00,
2013-03-27 01:42:00,37.0,21.0,29.79,NW,320,6.0,7.0,52,-99.99,,,-99.99,,2013-03-27 05:42:00,
2013-03-27 01:52:00,37.0,20.0,29.79,NNW,330,6.0,7.0,50,-99.99,,,-99.99,,2013-03-27 05:52:00,
2013-03-27 02:01:00,37.0,20.0,29.79,NNW,330,6.0,7.0,50,-99.99,,,-99.99,,2013-03-27 06:01:00,
2013-03-27 02:11:00,36.0,21.0,29.79,NNW,330,6.0,7.0,52,-99.99,,,-99.99,,2013-03-27 06:11:00,
2013-03-27 02:31:00,37.0,21.0,29.78,NNW,330,8.0,9.0,53,-99.99,,,-99.99,,2013-03-27 06:31:00,
2013-03-27 02:41:00,37.0,21.0,29.78,NNW,330,8.0,9.0,53,-99.99,,,-99.99,,2013-03-27 06:41:00,
2013-03-27 02:51:00,36.0,21.0,29.78,NNW,330,9.0,10.0,52,-99.99,,,-99.99,,2013-03-27 06:51:00,
2013-03-27 03:01:00,36.0,21.0,29.78,NNW,330,9.0,10.0,52,-99.99,,,-99.99,,2013-03-27 07:01:00,
2013-03-27 03:11:00,36.0,20.0,29.78,NNW,340,8.0,9.0,52,-99.99,,,-99.99,,2013-03-27 07:11:00,
2013-03-27 03:21:00,36.0,20.0,29.78,NNW,330,8.0,8.0,51,-99.99,,,-99.99,,2013-03-27 07:21:00,
2013-03-27 03:31:00,36.0,20.0,29.78,NNW,330,7.0,8.0,51,-99.99,,,-99.99,,2013-03-27 07:31:00,
2013-03-27 03:41:00,36.0,20.0,29.78,NNW,330,7.0,8.0,51,-99.99,,,-99.99,,2013-03-27 07:41:00,
2013-03-27 03:52:00,36.0,20.0,29.78,NNW,330,7.0,8.0,51,-99.99,,,-99.99,,2013-03-27 07:52:00,
2013-03-27 04:02:00,36.0,20.0,29.78,NNW,330,7.0,8.0,51,-99.99,,,-99.99,,2013-03-27 08:02:00,
2013-03-27 04:11:00,36.0,19.0,29.78,NNW,330,8.0,9.0,50,-99.99,,,-99.99,,2013-03-27 08:11:00,
2013-03-27 04:21:00,36.0,20.0,29.78,NNW,330,7.0,8.0,52,-99.99,,,-99.99,,2013-03-27 08:21:00,
2013-03-27 04:31:00,35.0,20.0,29.78,NNW,330,7.0,9.0,53,-99.99,,,-99.99,,2013-03-27 08:31:00,
2013-03-27 04:42:00,35.0,20.0,29.78,NNW,330,7.0,9.0,53,-99.99,,,-99.99,,2013-03-27 08:42:00,
2013-03-27 04:51:00,35.0,21.0,29.78,NNW,340,8.0,9.0,56,-99.99,,,-99.99,,2013-03-27 08:51:00,
2013-03-27 05:01:00,35.0,21.0,29.78,NNW,340,8.0,9.0,56,-99.99,,,-99.99,,2013-03-27 09:01:00,
2013-03-27 05:11:00,35.0,21.0,29.78,NNW,330,8.0,9.0,55,-99.99,,,-99.99,,2013-03-27 09:11:00,
2013-03-27 05:21:00,35.0,20.0,29.78,NNW,330,9.0,10.0,54,-99.99,,,-99.99,,2013-03-27 09:21:00,
2013-03-27 05:32:00,35.0,20.0,29.78,NW,320,9.0,9.0,55,-99.99,,,-99.99,,2013-03-27 09:32:00,
2013-03-27 05:42:00,35.0,20.0,29.78,NW,320,9.0,9.0,55,-99.99,,,-99.99,,2013-03-27 09:42:00,
2013-03-27 05:52:00,35.0,21.0,29.79,NNW,340,7.0,9.0,56,-99.99,,,-99.99,,2013-03-27 09:52:00,
2013-03-27 06:02:00,35.0,21.0,29.79,NNW,340,7.0,9.0,56,-99.99,,,-99.99,,2013-03-27 10:02:00,
2013-03-27 06:12:00,35.0,21.0,29.79,NNW,330,9.0,10.0,57,-99.99,,,-99.99,,2013-03-27 10:12:00,
2013-03-27 06:22:00,34.0,21.0,29.79,NNW,330,10.0,11.0,57,-99.99,,,-99.99,,2013-03-27 10:22:00,
2013-03-27 06:31:00,34.0,21.0,29.79,NNW,330,9.0,10.0,57,-99.99,,,-99.99,,2013-03-27 10:31:00,
2013-03-27 06:41:00,34.0,21.0,29.79,NNW,330,9.0,10.0,57,-99.99,,,-99.99,,2013-03-27 10:41:00,
2013-03-27 06:52:00,34.0,21.0,29.80,NNW,330,9.0,10.0,57,-99.99,,,-99.99,,2013-03-27 10:52:00,
2013-03-27 07:02:00,34.0,21.0,29.80,NNW,330,9.0,10.0,57,-99.99,,,-99.99,,2013-03-27 11:02:00,
2013-03-27 07:11:00,34.0,21.0,29.80,NNW,330,9.0,11.0,58,-99.99,,,-99.99,,2013-03-27 11:11:00,
2013-03-27 07:31:00,35.0,21.0,29.81,NNW,330,8.0,10.0,56,-99.99,,,-99.99,,2013-03-27 11:31:00,
2013-03-27 07:42:00,35.0,21.0,29.81,NNW,330,8.0,10.0,56,-99.99,,,-99.99,,2013-03-27 11:42:00,
2013-03-27 07:51:00,35.0,20.0,29.82,NNW,330,9.0,11.0,53,-99.99,,,-99.99,,2013-03-27 11:51:00,
2013-03-27 08:01:00,35.0,20.0,29.82,NNW,330,9.0,11.0,53,-99.99,,,-99.99,,2013-03-27 12:01:00,
2013-03-27 08:11:00,36.0,20.0,29.82,NW,320,10.0,13.0,51,-99.99,,,-99.99,,2013-03-27 12:11:00,
2013-03-27 08:22:00,37.0,20.0,29.82,NW,320,11.0,15.0,49,-99.99,,,-99.99,,2013-03-27 12:22:00,
2013-03-27 08:31:00,38.0,20.0,29.82,NW,320,13.0,15.0,46,-99.99,,,-99.99,,2013-03-27 12:31:00,
2013-03-27 08:42:00,38.0,20.0,29.82,NW,320,13.0,15.0,46,-99.99,,,-99.99,,2013-03-27 12:42:00,
2013-03-27 08:51:00,40.0,20.0,29.82,NNW,330,14.0,15.0,45,-99.99,,,-99.99,,2013-03-27 12:51:00,
2013-03-27 09:01:00,40.0,20.0,29.82,NNW,330,14.0,15.0,45,-99.99,,,-99.99,,2013-03-27 13:01:00,
2013-03-27 09:11:00,41.0,20.0,29.82,NW,320,14.0,17.0,41,-99.99,,,-99.99,,2013-03-27 13:11:00,
2013-03-27 09:21:00,42.0,20.0,29.83,NNW,330,16.0,20.0,40,-99.99,,,-99.99,,2013-03-27 13:21:00,
2013-03-27 09:32:00,42.0,20.0,29.82,NW,320,16.0,20.0,39,-99.99,,,-99.99,,2013-03-27 13:32:00,
2013-03-27 09:41:00,42.0,20.0,29.82,NW,320,16.0,20.0,39,-99.99,,,-99.99,,2013-03-27 13:41:00,
2013-03-27 09:52:00,43.0,20.0,29.82,NW,320,17.0,22.0,39,-99.99,,,-99.99,,2013-03-27 13:52:00,
2013-03-27 10:01:00,43.0,20.0,29.82,NW,320,17.0,22.0,39,-99.99,,,-99.99,,2013-03-27 14:01:00,
2013-03-27 10:21:00,45.0,21.0,29.82,NNW,330,13.0,15.0,38,-99.99,,,-99.99,,2013-03-27 14:21:00,
2013-03-27 10:31:00,46.0,20.0,29.82,NW,320,13.0,16.0,36,-99.99,,,-99.99,,2013-03-27 14:31:00,
2013-03-27 10:41:00,46.0,20.0,29.82,NW,320,13.0,16.0,36,-99.99,,,-99.99,,2013-03-27 14:41:00,
2013-03-27 10:51:00,47.0,21.0,29.82,NNW,330,11.0,15.0,36,-99.99,,,-99.99,,2013-03-27 14:51:00,
2013-03-27 11:01:00,47.0,21.0,29.82,NNW,330,11.0,15.0,36,-99.99,,,-99.99,,2013-03-27 15:01:00,
2013-03-27 11:11:00,48.0,22.0,29.82,NW,320,9.0,16.0,35,-99.99,,,-99.99,,2013-03-27 15:11:00,
2013-03-27 11:21:00,47.0,22.0,29.82,NW,320,11.0,16.0,35,-99.99,,,-99.99,,2013-03-27 15:21:00,
2013-03-27 11:32:00,48.0,20.0,29.81,NW,310,15.0,22.0,32,-99.99,,,-99.99,,2013-03-27 15:32:00,
2013-03-27 11:53:00,42.0,-99.9,29.80,WSW,240,16.0,21.0,-999,-99.99,,,-99.99,,2013-03-27 15:53:00,
2013-03-27 12:03:00,42.0,-99.9,29.80,WSW,240,16.0,21.0,-999,-99.99,,,-99.99,,2013-03-27 16:03:00,
2013-03-27 12:13:00,40.0,-99.9,29.79,WSW,240,22.0,26.0,-999,-99.99,,,-99.99,,2013-03-27 16:13:00,
2013-03-27 12:23:00,41.0,-99.9,29.79,WSW,240,21.0,26.0,-999,-99.99,,,-99.99,,2013-03-27 16:23:00,
2013-03-27 12:33:00,41.0,-99.9,29.79,WSW,240,21.0,26.0,-999,-99.99,,,-99.99,,2013-03-27 16:33:00,
2013-03-27 12:42:00,41.0,-99.9,29.78,WSW,240,23.0,25.0,-999,-99.99,,,-99.99,,2013-03-27 16:42:00,
2013-03-27 12:52:00,41.0,-99.9,29.78,WSW,250,24.0,26.0,-999,-99.99,,,-99.99,,2013-03-27 16:52:00,
2013-03-27 13:03:00,41.0,-99.9,29.78,WSW,250,24.0,26.0,-999,-99.99,,,-99.99,,2013-03-27 17:03:00,
2013-03-27 13:12:00,41.0,-99.9,29.78,WSW,250,22.0,25.0,-999,-99.99,,,-99.99,,2013-03-27 17:12:00,
2013-03-27 13:22:00,41.0,32.0,29.78,WSW,240,24.0,28.0,69,-99.99,,,-99.99,,2013-03-27 17:22:00,
2013-03-27 13:32:00,41.0,32.0,29.78,WSW,240,24.0,28.0,69,-99.99,,,-99.99,,2013-03-27 17:32:00,
2013-03-27 13:44:00,42.0,32.0,29.77,WSW,240,24.0,28.0,68,-99.99,,,-99.99,,2013-03-27 17:44:00,
2013-03-27 13:51:00,42.0,32.0,29.77,WSW,250,20.0,26.0,69,-99.99,,,-99.99,,2013-03-27 17:51:00,
2013-03-27 14:01:00,42.0,32.0,29.77,WSW,250,20.0,26.0,69,-99.99,,,-99.99,,2013-03-27 18:01:00,
2013-03-27 14:11:00,42.0,31.0,29.76,WSW,240,24.0,28.0,64,-99.99,,,-99.99,,2013-03-27 18:11:00,
2013-03-27 14:21:00,42.0,32.0,29.76,WSW,250,22.0,29.0,68,-99.99,,,-99.99,,2013-03-27 18:21:00,
2013-03-27 14:31:00,42.0,32.0,29.75,WSW,250,24.0,28.0,68,-99.99,,,-99.99,,2013-03-27 18:31:00,
2013-03-27 14:42:00,42.0,32.0,29.75,WSW,250,24.0,28.0,68,-99.99,,,-99.99,,2013-03-27 18:42:00,
2013-03-27 14:51:00,42.0,32.0,29.76,WSW,250,22.0,28.0,69,-99.99,,,-99.99,,2013-03-27 18:51:00,
2013-03-27 15:01:00,42.0,32.0,29.76,WSW,250,22.0,28.0,69,-99.99,,,-99.99,,2013-03-27 19:01:00,
2013-03-27 15:31:00,43.0,31.0,29.75,WSW,250,23.0,28.0,63,-99.99,,,-99.99,,2013-03-27 19:31:00,
2013-03-27 15:41:00,43.0,32.0,29.75,WSW,250,22.0,25.0,64,-99.99,,,-99.99,,2013-03-27 19:41:00,
2013-03-27 15:51:00,44.0,31.0,29.74,WSW,240,24.0,31.0,60,-99.99,,,-99.99,,2013-03-27 19:51:00,
2013-03-27 16:01:00,44.0,31.0,29.74,WSW,240,24.0,31.0,60,-99.99,,,-99.99,,2013-03-27 20:01:00,
2013-03-27 16:21:00,44.0,31.0,29.75,West,260,20.0,24.0,61,-99.99,,,-99.99,,2013-03-27 20:21:00,
2013-03-27 16:31:00,44.0,31.0,29.75,West,260,20.0,24.0,61,-99.99,,,-99.99,,2013-03-27 20:31:00,
2013-03-27 16:41:00,44.0,32.0,29.75,WSW,250,20.0,23.0,62,-99.99,,,-99.99,,2013-03-27 20:41:00,
2013-03-27 16:51:00,46.0,30.0,29.77,WNW,300,7.0,11.0,54,-99.99,,,-99.99,,2013-03-27 20:51:00,
2013-03-27 17:01:00,46.0,30.0,29.77,WNW,300,7.0,11.0,54,-99.99,,,-99.99,,2013-03-27 21:01:00,
2013-03-27 17:11:00,51.0,23.0,29.77,North,350,11.0,15.0,33,-99.99,,,-99.99,,2013-03-27 21:11:00,
2013-03-27 17:21:00,50.0,22.0,29.77,NNW,340,15.0,20.0,33,-99.99,,,-99.99,,2013-03-27 21:21:00,
2013-03-27 17:31:00,50.0,22.0,29.77,NNW,340,15.0,20.0,33,-99.99,,,-99.99,,2013-03-27 21:31:00,
2013-03-27 17:42:00,50.0,23.0,29.77,North,360,16.0,21.0,34,-99.99,,,-99.99,,2013-03-27 21:42:00,
2013-03-27 17:52:00,50.0,23.0,29.77,NNW,340,22.0,25.0,34,-99.99,,,-99.99,,2013-03-27 21:52:00,
2013-03-27 18:02:00,50.0,23.0,29.77,NNW,340,22.0,25.0,34,-99.99,,,-99.99,,2013-03-27 22:02:00,
2013-03-27 18:12:00,50.0,22.0,29.78,North,350,21.0,23.0,33,-99.99,,,-99.99,,2013-03-27 22:12:00,
2013-03-27 18:22:00,49.0,24.0,29.78,North,360,17.0,21.0,37,-99.99,,,-99.99,,2013-03-27 22:22:00,
2013-03-27 18:32:00,49.0,24.0,29.78,North,360,17.0,21.0,37,-99.99,,,-99.99,,2013-03-27 22:32:00,
2013-03-27 18:42:00,49.0,23.0,29.78,NNW,340,17.0,21.0,34,-99.99,,,-99.99,,2013-03-27 22:42:00,
2013-03-27 18:52:00,50.0,21.0,29.78,NW,320,13.0,16.0,32,-99.99,,,-99.99,,2013-03-27 22:52:00,
2013-03-27 19:01:00,50.0,21.0,29.78,NW,320,13.0,16.0,32,-99.99,,,-99.99,,2013-03-27 23:01:00,
2013-03-27 19:11:00,50.0,20.0,29.79,NW,320,16.0,21.0,29,-99.99,,,-99.99,,2013-03-27 23:11:00,
2013-03-27 19:21:00,50.0,17.0,29.79,NW,310,20.0,25.0,26,-99.99,,,-99.99,,2013-03-27 23:21:00,
2013-03-27 19:42:00,50.0,18.0,29.80,NW,320,15.0,18.0,28,-99.99,,,-99.99,,2013-03-27 23:42:00,
2013-03-27 19:51:00,49.0,18.0,29.81,NW,320,13.0,15.0,28,-99.99,,,-99.99,,2013-03-27 23:51:00,
2013-03-27 20:11:00,49.0,20.0,29.81,NW,320,21.0,29.0,30,-99.99,,,-99.99,,2013-03-28 00:11:00,
2013-03-27 20:21:00,49.0,20.0,29.81,NW,320,21.0,29.0,30,-99.99,,,-99.99,,2013-03-28 00:21:00,
2013-03-27 20:31:00,49.0,20.0,29.81,NW,320,21.0,29.0,30,-99.99,,,-99.99,,2013-03-28 00:31:00,
2013-03-27 20:41:00,49.0,20.0,29.81,NW,320,21.0,29.0,30,-99.99,,,-99.99,,2013-03-28 00:41:00,